sensor_id;sensor_type;location;lat;lon;timestamp;temperature;humidity
24638;DHT22;12773;50.162;8.548;2022-10-26T00:00:28;13.20;99.90
24638;DHT22;12773;50.162;8.548;2022-10-26T00:03:16;13.30;99.90
24638;DHT22;12773;50.162;8.548;2022-10-26T00:08:55;13.50;99.90
24638;DHT22;12773;50.162;8.548;2022-10-26T00:11:43;13.50;99.90
24638;DHT22;12773;50.162;8.548;2022-10-26T00:14:31;13.40;99.90
24638;DHT22;12773;50.162;8.548;2022-10-26T00:17:18;13.50;99.90
24638;DHT22;12773;50.162;8.548;2022-10-26T00:20:06;13.50;99.90
24638;DHT22;12773;50.162;8.548;2022-10-26T00:22:53;13.50;99.90
24638;DHT22;12773;50.162;8.548;2022-10-26T00:25:41;13.50;99.90
24638;DHT22;12773;50.162;8.548;2022-10-26T00:28:28;13.50;99.90
24638;DHT22;12773;50.162;8.548;2022-10-26T00:31:16;13.40;99.90
24638;DHT22;12773;50.162;8.548;2022-10-26T00:34:03;13.40;99.90
24638;DHT22;12773;50.162;8.548;2022-10-26T00:36:51;13.40;99.90
24638;DHT22;12773;50.162;8.548;2022-10-26T00:39:39;13.40;99.90
24638;DHT22;12773;50.162;8.548;2022-10-26T00:42:26;13.40;99.90
24638;DHT22;12773;50.162;8.548;2022-10-26T00:45:22;13.40;99.90
24638;DHT22;12773;50.162;8.548;2022-10-26T00:48:18;13.40;99.90
24638;DHT22;12773;50.162;8.548;2022-10-26T00:51:06;13.50;99.90
24638;DHT22;12773;50.162;8.548;2022-10-26T00:53:54;13.50;99.90
24638;DHT22;12773;50.162;8.548;2022-10-26T00:56:42;13.50;99.90
24638;DHT22;12773;50.162;8.548;2022-10-26T00:59:30;13.40;99.90
24638;DHT22;12773;50.162;8.548;2022-10-26T01:02:18;13.40;99.90
24638;DHT22;12773;50.162;8.548;2022-10-26T01:05:06;13.40;99.90
24638;DHT22;12773;50.162;8.548;2022-10-26T01:07:54;13.40;99.90
24638;DHT22;12773;50.162;8.548;2022-10-26T01:10:42;13.40;99.90
24638;DHT22;12773;50.162;8.548;2022-10-26T01:13:31;13.50;99.90
24638;DHT22;12773;50.162;8.548;2022-10-26T01:23:30;13.70;99.90
24638;DHT22;12773;50.162;8.548;2022-10-26T01:33:08;13.50;99.90
24638;DHT22;12773;50.162;8.548;2022-10-26T01:39:01;13.40;99.90
24638;DHT22;12773;50.162;8.548;2022-10-26T01:41:51;13.40;99.90
24638;DHT22;12773;50.162;8.548;2022-10-26T01:44:41;13.60;99.90
24638;DHT22;12773;50.162;8.548;2022-10-26T01:47:31;13.70;99.90
24638;DHT22;12773;50.162;8.548;2022-10-26T01:50:19;13.80;99.90
24638;DHT22;12773;50.162;8.548;2022-10-26T01:53:10;13.80;99.90
24638;DHT22;12773;50.162;8.548;2022-10-26T01:55:58;13.80;99.90
24638;DHT22;12773;50.162;8.548;2022-10-26T02:05:02;14.00;99.90
24638;DHT22;12773;50.162;8.548;2022-10-26T02:17:23;14.10;99.90
24638;DHT22;12773;50.162;8.548;2022-10-26T02:20:12;14.20;99.90
24638;DHT22;12773;50.162;8.548;2022-10-26T02:23:06;14.10;99.90
24638;DHT22;12773;50.162;8.548;2022-10-26T02:25:54;14.00;99.90
24638;DHT22;12773;50.162;8.548;2022-10-26T02:28:46;14.10;99.90
24638;DHT22;12773;50.162;8.548;2022-10-26T02:31:34;14.10;99.90
24638;DHT22;12773;50.162;8.548;2022-10-26T02:34:24;14.10;99.90
24638;DHT22;12773;50.162;8.548;2022-10-26T02:37:14;14.20;99.90
24638;DHT22;12773;50.162;8.548;2022-10-26T02:40:07;14.00;99.90
24638;DHT22;12773;50.162;8.548;2022-10-26T02:42:56;13.90;99.90
24638;DHT22;12773;50.162;8.548;2022-10-26T02:46:01;13.90;99.90
24638;DHT22;12773;50.162;8.548;2022-10-26T02:48:47;14.00;99.90
24638;DHT22;12773;50.162;8.548;2022-10-26T02:54:58;14.20;99.90
24638;DHT22;12773;50.162;8.548;2022-10-26T02:57:46;14.30;99.90
24638;DHT22;12773;50.162;8.548;2022-10-26T03:00:35;14.30;99.90
24638;DHT22;12773;50.162;8.548;2022-10-26T03:03:22;14.30;99.90
24638;DHT22;12773;50.162;8.548;2022-10-26T03:06:10;14.40;99.90
24638;DHT22;12773;50.162;8.548;2022-10-26T03:08:57;14.50;99.90
24638;DHT22;12773;50.162;8.548;2022-10-26T03:11:45;14.50;99.90
24638;DHT22;12773;50.162;8.548;2022-10-26T03:14:32;14.50;99.90
24638;DHT22;12773;50.162;8.548;2022-10-26T03:17:20;14.60;99.90
24638;DHT22;12773;50.162;8.548;2022-10-26T03:20:08;14.70;99.90
24638;DHT22;12773;50.162;8.548;2022-10-26T03:22:55;14.50;99.90
24638;DHT22;12773;50.162;8.548;2022-10-26T03:25:42;14.30;99.90
24638;DHT22;12773;50.162;8.548;2022-10-26T03:28:30;14.30;99.90
24638;DHT22;12773;50.162;8.548;2022-10-26T03:31:17;14.40;99.90
24638;DHT22;12773;50.162;8.548;2022-10-26T03:34:05;14.50;99.90
24638;DHT22;12773;50.162;8.548;2022-10-26T03:36:52;14.60;99.90
24638;DHT22;12773;50.162;8.548;2022-10-26T03:39:40;14.60;99.90
24638;DHT22;12773;50.162;8.548;2022-10-26T03:42:27;14.60;99.90
24638;DHT22;12773;50.162;8.548;2022-10-26T03:45:15;14.70;99.90
24638;DHT22;12773;50.162;8.548;2022-10-26T03:48:02;14.60;99.90
24638;DHT22;12773;50.162;8.548;2022-10-26T03:50:50;14.70;99.90
24638;DHT22;12773;50.162;8.548;2022-10-26T03:53:37;14.70;99.90
24638;DHT22;12773;50.162;8.548;2022-10-26T03:56:25;14.70;99.90
24638;DHT22;12773;50.162;8.548;2022-10-26T03:59:12;14.60;99.90
24638;DHT22;12773;50.162;8.548;2022-10-26T04:01:59;14.60;99.90
24638;DHT22;12773;50.162;8.548;2022-10-26T04:04:47;14.60;99.90
24638;DHT22;12773;50.162;8.548;2022-10-26T04:07:34;14.60;99.90
24638;DHT22;12773;50.162;8.548;2022-10-26T04:10:23;14.60;99.90
24638;DHT22;12773;50.162;8.548;2022-10-26T04:13:11;14.60;99.90
24638;DHT22;12773;50.162;8.548;2022-10-26T04:15:59;14.70;99.90
24638;DHT22;12773;50.162;8.548;2022-10-26T04:18:47;14.70;99.90
24638;DHT22;12773;50.162;8.548;2022-10-26T04:21:34;14.70;99.90
24638;DHT22;12773;50.162;8.548;2022-10-26T04:24:21;14.70;99.90
24638;DHT22;12773;50.162;8.548;2022-10-26T04:27:08;14.60;99.90
24638;DHT22;12773;50.162;8.548;2022-10-26T04:29:56;14.60;99.90
24638;DHT22;12773;50.162;8.548;2022-10-26T04:32:43;14.60;99.90
24638;DHT22;12773;50.162;8.548;2022-10-26T04:35:31;14.60;99.90
24638;DHT22;12773;50.162;8.548;2022-10-26T04:38:20;14.50;99.90
24638;DHT22;12773;50.162;8.548;2022-10-26T04:41:07;14.50;99.90
24638;DHT22;12773;50.162;8.548;2022-10-26T04:43:54;14.50;99.90
24638;DHT22;12773;50.162;8.548;2022-10-26T04:46:42;14.50;99.90
24638;DHT22;12773;50.162;8.548;2022-10-26T04:49:29;14.40;99.90
24638;DHT22;12773;50.162;8.548;2022-10-26T04:52:17;14.30;99.90
24638;DHT22;12773;50.162;8.548;2022-10-26T04:55:05;14.30;99.90
24638;DHT22;12773;50.162;8.548;2022-10-26T04:57:53;14.40;99.90
24638;DHT22;12773;50.162;8.548;2022-10-26T05:00:41;14.30;99.90
24638;DHT22;12773;50.162;8.548;2022-10-26T05:03:29;14.40;99.90
24638;DHT22;12773;50.162;8.548;2022-10-26T05:06:16;14.40;99.90
24638;DHT22;12773;50.162;8.548;2022-10-26T05:09:03;14.20;99.90
24638;DHT22;12773;50.162;8.548;2022-10-26T05:11:51;14.20;99.90
24638;DHT22;12773;50.162;8.548;2022-10-26T05:14:38;14.20;99.90
24638;DHT22;12773;50.162;8.548;2022-10-26T05:17:25;14.20;99.90
24638;DHT22;12773;50.162;8.548;2022-10-26T05:20:13;14.20;99.90
24638;DHT22;12773;50.162;8.548;2022-10-26T05:23:03;14.20;99.90
24638;DHT22;12773;50.162;8.548;2022-10-26T05:25:51;14.20;99.90
24638;DHT22;12773;50.162;8.548;2022-10-26T05:28:38;14.10;99.90
24638;DHT22;12773;50.162;8.548;2022-10-26T05:31:26;14.10;99.90
24638;DHT22;12773;50.162;8.548;2022-10-26T05:34:13;14.20;99.90
24638;DHT22;12773;50.162;8.548;2022-10-26T05:37:00;14.10;99.90
24638;DHT22;12773;50.162;8.548;2022-10-26T05:39:48;14.00;99.90
24638;DHT22;12773;50.162;8.548;2022-10-26T05:42:35;14.10;99.90
24638;DHT22;12773;50.162;8.548;2022-10-26T05:45:22;14.20;99.90
24638;DHT22;12773;50.162;8.548;2022-10-26T05:48:10;14.30;99.90
24638;DHT22;12773;50.162;8.548;2022-10-26T05:51:01;14.30;99.90
24638;DHT22;12773;50.162;8.548;2022-10-26T05:53:50;14.30;99.90
24638;DHT22;12773;50.162;8.548;2022-10-26T05:56:40;14.40;99.90
24638;DHT22;12773;50.162;8.548;2022-10-26T05:59:29;14.30;99.90
24638;DHT22;12773;50.162;8.548;2022-10-26T06:05:31;14.30;99.90
24638;DHT22;12773;50.162;8.548;2022-10-26T06:08:20;14.40;99.90
24638;DHT22;12773;50.162;8.548;2022-10-26T06:11:08;14.40;99.90
24638;DHT22;12773;50.162;8.548;2022-10-26T06:13:56;14.30;99.90
24638;DHT22;12773;50.162;8.548;2022-10-26T06:17:05;14.30;99.90
24638;DHT22;12773;50.162;8.548;2022-10-26T06:20:08;14.30;99.90
24638;DHT22;12773;50.162;8.548;2022-10-26T06:26:08;14.20;99.90
24638;DHT22;12773;50.162;8.548;2022-10-26T06:32:23;14.30;99.90
24638;DHT22;12773;50.162;8.548;2022-10-26T06:35:18;14.40;99.90
24638;DHT22;12773;50.162;8.548;2022-10-26T06:38:09;14.30;99.90
24638;DHT22;12773;50.162;8.548;2022-10-26T06:41:03;14.30;99.90
24638;DHT22;12773;50.162;8.548;2022-10-26T06:43:48;14.30;99.90
24638;DHT22;12773;50.162;8.548;2022-10-26T06:46:42;14.40;99.90
24638;DHT22;12773;50.162;8.548;2022-10-26T06:52:32;14.60;99.90
24638;DHT22;12773;50.162;8.548;2022-10-26T06:55:20;14.60;99.90
24638;DHT22;12773;50.162;8.548;2022-10-26T06:58:18;14.60;99.90
24638;DHT22;12773;50.162;8.548;2022-10-26T07:01:07;14.70;99.90
24638;DHT22;12773;50.162;8.548;2022-10-26T07:03:56;14.80;99.90
24638;DHT22;12773;50.162;8.548;2022-10-26T07:06:43;14.80;99.90
24638;DHT22;12773;50.162;8.548;2022-10-26T07:09:30;14.80;99.90
24638;DHT22;12773;50.162;8.548;2022-10-26T07:12:18;14.90;99.90
24638;DHT22;12773;50.162;8.548;2022-10-26T07:15:06;14.90;99.90
24638;DHT22;12773;50.162;8.548;2022-10-26T07:17:57;14.80;99.90
24638;DHT22;12773;50.162;8.548;2022-10-26T07:20:45;15.00;99.90
24638;DHT22;12773;50.162;8.548;2022-10-26T07:23:32;15.00;99.90
24638;DHT22;12773;50.162;8.548;2022-10-26T07:26:20;15.10;99.90
24638;DHT22;12773;50.162;8.548;2022-10-26T07:29:07;15.00;99.90
24638;DHT22;12773;50.162;8.548;2022-10-26T07:31:55;15.00;99.90
24638;DHT22;12773;50.162;8.548;2022-10-26T07:34:42;15.10;99.90
24638;DHT22;12773;50.162;8.548;2022-10-26T07:37:29;15.20;99.90
24638;DHT22;12773;50.162;8.548;2022-10-26T07:40:17;15.30;99.90
24638;DHT22;12773;50.162;8.548;2022-10-26T07:43:05;15.40;99.90
24638;DHT22;12773;50.162;8.548;2022-10-26T07:45:52;15.50;99.90
24638;DHT22;12773;50.162;8.548;2022-10-26T07:48:41;15.60;99.90
24638;DHT22;12773;50.162;8.548;2022-10-26T07:51:28;15.60;99.90
24638;DHT22;12773;50.162;8.548;2022-10-26T07:54:16;15.70;99.90
24638;DHT22;12773;50.162;8.548;2022-10-26T07:57:03;15.70;99.90
24638;DHT22;12773;50.162;8.548;2022-10-26T07:59:50;15.90;99.90
24638;DHT22;12773;50.162;8.548;2022-10-26T08:02:38;15.90;99.90
24638;DHT22;12773;50.162;8.548;2022-10-26T08:05:25;15.90;99.90
24638;DHT22;12773;50.162;8.548;2022-10-26T08:08:13;16.00;99.90
24638;DHT22;12773;50.162;8.548;2022-10-26T08:11:01;16.00;99.90
24638;DHT22;12773;50.162;8.548;2022-10-26T08:13:53;16.10;99.90
24638;DHT22;12773;50.162;8.548;2022-10-26T08:16:40;16.20;99.90
24638;DHT22;12773;50.162;8.548;2022-10-26T08:19:28;16.20;99.90
24638;DHT22;12773;50.162;8.548;2022-10-26T08:22:15;16.20;99.90
24638;DHT22;12773;50.162;8.548;2022-10-26T08:25:03;16.20;99.90
24638;DHT22;12773;50.162;8.548;2022-10-26T08:27:51;16.30;99.90
24638;DHT22;12773;50.162;8.548;2022-10-26T08:30:39;16.40;99.90
24638;DHT22;12773;50.162;8.548;2022-10-26T08:33:26;16.50;99.90
24638;DHT22;12773;50.162;8.548;2022-10-26T08:36:19;16.60;99.90
24638;DHT22;12773;50.162;8.548;2022-10-26T08:39:06;16.70;99.90
24638;DHT22;12773;50.162;8.548;2022-10-26T08:41:57;16.70;99.90
24638;DHT22;12773;50.162;8.548;2022-10-26T08:44:49;16.60;99.90
24638;DHT22;12773;50.162;8.548;2022-10-26T08:47:41;16.60;99.90
24638;DHT22;12773;50.162;8.548;2022-10-26T08:50:38;16.70;99.90
24638;DHT22;12773;50.162;8.548;2022-10-26T08:53:32;16.50;99.90
24638;DHT22;12773;50.162;8.548;2022-10-26T08:56:25;16.50;99.90
24638;DHT22;12773;50.162;8.548;2022-10-26T08:59:27;16.70;99.90
24638;DHT22;12773;50.162;8.548;2022-10-26T09:02:14;16.60;99.90
24638;DHT22;12773;50.162;8.548;2022-10-26T09:05:02;16.50;99.90
24638;DHT22;12773;50.162;8.548;2022-10-26T09:07:57;16.50;99.90
24638;DHT22;12773;50.162;8.548;2022-10-26T09:10:52;16.40;99.90
24638;DHT22;12773;50.162;8.548;2022-10-26T09:13:50;16.20;99.90
24638;DHT22;12773;50.162;8.548;2022-10-26T09:16:39;16.30;99.90
24638;DHT22;12773;50.162;8.548;2022-10-26T09:19:41;16.30;99.90
24638;DHT22;12773;50.162;8.548;2022-10-26T09:22:29;16.60;99.90
24638;DHT22;12773;50.162;8.548;2022-10-26T09:25:23;16.80;99.90
24638;DHT22;12773;50.162;8.548;2022-10-26T09:28:14;16.70;99.90
24638;DHT22;12773;50.162;8.548;2022-10-26T09:31:02;16.40;99.90
24638;DHT22;12773;50.162;8.548;2022-10-26T09:33:51;16.60;99.90
24638;DHT22;12773;50.162;8.548;2022-10-26T09:36:38;16.80;99.90
24638;DHT22;12773;50.162;8.548;2022-10-26T09:39:29;16.80;99.90
24638;DHT22;12773;50.162;8.548;2022-10-26T09:42:20;17.10;99.90
24638;DHT22;12773;50.162;8.548;2022-10-26T09:48:21;17.70;99.90
24638;DHT22;12773;50.162;8.548;2022-10-26T09:51:09;17.60;99.90
24638;DHT22;12773;50.162;8.548;2022-10-26T09:53:57;17.90;99.90
24638;DHT22;12773;50.162;8.548;2022-10-26T09:56:51;18.20;99.90
24638;DHT22;12773;50.162;8.548;2022-10-26T09:59:40;18.60;99.90
24638;DHT22;12773;50.162;8.548;2022-10-26T10:02:37;18.80;99.90
24638;DHT22;12773;50.162;8.548;2022-10-26T10:05:31;18.90;99.90
24638;DHT22;12773;50.162;8.548;2022-10-26T10:08:25;19.20;99.90
24638;DHT22;12773;50.162;8.548;2022-10-26T10:11:14;18.80;99.90
24638;DHT22;12773;50.162;8.548;2022-10-26T10:14:08;18.40;99.90
24638;DHT22;12773;50.162;8.548;2022-10-26T10:16:54;18.40;99.90
24638;DHT22;12773;50.162;8.548;2022-10-26T10:19:41;18.40;99.90
24638;DHT22;12773;50.162;8.548;2022-10-26T10:22:29;18.20;99.90
24638;DHT22;12773;50.162;8.548;2022-10-26T10:26:19;18.30;99.90
24638;DHT22;12773;50.162;8.548;2022-10-26T10:28:20;18.30;99.90
24638;DHT22;12773;50.162;8.548;2022-10-26T10:31:20;18.40;99.90
24638;DHT22;12773;50.162;8.548;2022-10-26T10:34:19;18.60;99.90
24638;DHT22;12773;50.162;8.548;2022-10-26T10:40:22;19.00;99.90
24638;DHT22;12773;50.162;8.548;2022-10-26T10:43:13;18.80;99.90
24638;DHT22;12773;50.162;8.548;2022-10-26T10:46:01;18.50;99.90
24638;DHT22;12773;50.162;8.548;2022-10-26T10:48:54;18.30;99.90
24638;DHT22;12773;50.162;8.548;2022-10-26T10:51:43;18.30;99.90
24638;DHT22;12773;50.162;8.548;2022-10-26T11:00:47;19.10;99.90
24638;DHT22;12773;50.162;8.548;2022-10-26T11:03:42;19.00;99.90
24638;DHT22;12773;50.162;8.548;2022-10-26T11:06:29;19.00;99.90
24638;DHT22;12773;50.162;8.548;2022-10-26T11:09:21;19.40;99.90
24638;DHT22;12773;50.162;8.548;2022-10-26T11:12:22;19.90;99.90
24638;DHT22;12773;50.162;8.548;2022-10-26T11:15:13;20.20;99.90
24638;DHT22;12773;50.162;8.548;2022-10-26T11:18:07;20.00;99.90
24638;DHT22;12773;50.162;8.548;2022-10-26T11:21:03;19.90;99.90
24638;DHT22;12773;50.162;8.548;2022-10-26T11:23:49;19.80;99.90
24638;DHT22;12773;50.162;8.548;2022-10-26T11:26:50;19.70;99.90
24638;DHT22;12773;50.162;8.548;2022-10-26T11:29:53;19.50;99.90
24638;DHT22;12773;50.162;8.548;2022-10-26T11:39:15;19.50;99.90
24638;DHT22;12773;50.162;8.548;2022-10-26T11:42:08;19.40;99.90
24638;DHT22;12773;50.162;8.548;2022-10-26T11:45:14;19.40;99.90
24638;DHT22;12773;50.162;8.548;2022-10-26T11:48:14;19.50;99.90
24638;DHT22;12773;50.162;8.548;2022-10-26T11:51:02;19.60;99.90
24638;DHT22;12773;50.162;8.548;2022-10-26T11:53:50;19.50;99.90
24638;DHT22;12773;50.162;8.548;2022-10-26T11:56:44;19.40;99.90
24638;DHT22;12773;50.162;8.548;2022-10-26T11:59:38;19.40;99.90
24638;DHT22;12773;50.162;8.548;2022-10-26T12:02:25;19.30;99.90
24638;DHT22;12773;50.162;8.548;2022-10-26T12:05:32;19.40;99.90
24638;DHT22;12773;50.162;8.548;2022-10-26T12:08:24;19.40;99.90
24638;DHT22;12773;50.162;8.548;2022-10-26T12:11:37;19.50;99.90
24638;DHT22;12773;50.162;8.548;2022-10-26T12:20:51;19.40;99.90
24638;DHT22;12773;50.162;8.548;2022-10-26T12:23:54;19.50;99.90
24638;DHT22;12773;50.162;8.548;2022-10-26T12:26:50;19.60;99.90
24638;DHT22;12773;50.162;8.548;2022-10-26T12:29:44;19.60;99.90
24638;DHT22;12773;50.162;8.548;2022-10-26T12:35:43;19.70;99.90
24638;DHT22;12773;50.162;8.548;2022-10-26T12:41:28;20.00;99.90
24638;DHT22;12773;50.162;8.548;2022-10-26T12:50:23;20.40;99.90
24638;DHT22;12773;50.162;8.548;2022-10-26T12:53:12;20.30;99.90
24638;DHT22;12773;50.162;8.548;2022-10-26T12:56:04;20.20;99.90
24638;DHT22;12773;50.162;8.548;2022-10-26T12:59:02;20.30;99.90
24638;DHT22;12773;50.162;8.548;2022-10-26T13:07:38;20.60;99.90
24638;DHT22;12773;50.162;8.548;2022-10-26T13:10:27;20.30;99.90
24638;DHT22;12773;50.162;8.548;2022-10-26T13:13:20;20.20;99.90
24638;DHT22;12773;50.162;8.548;2022-10-26T13:16:11;20.00;99.90
24638;DHT22;12773;50.162;8.548;2022-10-26T13:18:59;20.20;99.90
24638;DHT22;12773;50.162;8.548;2022-10-26T13:21:48;20.30;99.90
24638;DHT22;12773;50.162;8.548;2022-10-26T13:24:38;20.40;99.90
24638;DHT22;12773;50.162;8.548;2022-10-26T13:30:43;20.40;99.90
24638;DHT22;12773;50.162;8.548;2022-10-26T13:33:35;20.60;99.90
24638;DHT22;12773;50.162;8.548;2022-10-26T13:36:32;20.50;99.90
24638;DHT22;12773;50.162;8.548;2022-10-26T13:39:34;20.60;99.90
24638;DHT22;12773;50.162;8.548;2022-10-26T13:42:21;20.60;99.90
24638;DHT22;12773;50.162;8.548;2022-10-26T13:45:11;20.60;99.90
24638;DHT22;12773;50.162;8.548;2022-10-26T13:48:04;20.70;99.90
24638;DHT22;12773;50.162;8.548;2022-10-26T13:50:55;20.70;99.90
24638;DHT22;12773;50.162;8.548;2022-10-26T13:53:46;20.70;99.90
24638;DHT22;12773;50.162;8.548;2022-10-26T13:56:42;20.80;99.90
24638;DHT22;12773;50.162;8.548;2022-10-26T13:59:25;20.60;99.90
24638;DHT22;12773;50.162;8.548;2022-10-26T14:05:09;20.70;99.90
24638;DHT22;12773;50.162;8.548;2022-10-26T14:07:58;20.80;99.90
24638;DHT22;12773;50.162;8.548;2022-10-26T14:10:57;20.90;99.90
24638;DHT22;12773;50.162;8.548;2022-10-26T14:13:48;21.10;99.90
24638;DHT22;12773;50.162;8.548;2022-10-26T14:16:36;21.10;99.90
24638;DHT22;12773;50.162;8.548;2022-10-26T14:19:37;21.10;99.90
24638;DHT22;12773;50.162;8.548;2022-10-26T14:22:26;21.20;99.90
24638;DHT22;12773;50.162;8.548;2022-10-26T14:25:18;21.20;99.90
24638;DHT22;12773;50.162;8.548;2022-10-26T14:28:21;21.20;99.90
24638;DHT22;12773;50.162;8.548;2022-10-26T14:31:13;21.20;99.90
24638;DHT22;12773;50.162;8.548;2022-10-26T14:34:04;21.10;99.90
24638;DHT22;12773;50.162;8.548;2022-10-26T14:36:57;21.00;99.90
24638;DHT22;12773;50.162;8.548;2022-10-26T14:39:45;21.10;99.90
24638;DHT22;12773;50.162;8.548;2022-10-26T14:42:38;21.10;99.90
24638;DHT22;12773;50.162;8.548;2022-10-26T14:45:30;21.10;99.90
24638;DHT22;12773;50.162;8.548;2022-10-26T14:51:20;21.20;99.90
24638;DHT22;12773;50.162;8.548;2022-10-26T14:54:20;21.20;99.90
24638;DHT22;12773;50.162;8.548;2022-10-26T14:56:59;21.30;99.90
24638;DHT22;12773;50.162;8.548;2022-10-26T14:59:58;21.10;99.90
24638;DHT22;12773;50.162;8.548;2022-10-26T15:02:39;21.00;99.90
24638;DHT22;12773;50.162;8.548;2022-10-26T15:05:28;21.00;99.90
24638;DHT22;12773;50.162;8.548;2022-10-26T15:08:41;21.10;99.90
24638;DHT22;12773;50.162;8.548;2022-10-26T15:11:32;21.20;99.90
24638;DHT22;12773;50.162;8.548;2022-10-26T15:14:19;21.30;99.90
24638;DHT22;12773;50.162;8.548;2022-10-26T15:17:12;21.40;99.90
24638;DHT22;12773;50.162;8.548;2022-10-26T15:20:01;21.30;99.90
24638;DHT22;12773;50.162;8.548;2022-10-26T15:22:59;21.40;99.90
24638;DHT22;12773;50.162;8.548;2022-10-26T15:25:52;21.40;99.90
24638;DHT22;12773;50.162;8.548;2022-10-26T15:28:40;21.40;99.90
24638;DHT22;12773;50.162;8.548;2022-10-26T15:31:31;21.40;99.90
24638;DHT22;12773;50.162;8.548;2022-10-26T15:34:22;21.40;99.90
24638;DHT22;12773;50.162;8.548;2022-10-26T15:37:09;21.40;99.90
24638;DHT22;12773;50.162;8.548;2022-10-26T15:39:58;21.30;99.90
24638;DHT22;12773;50.162;8.548;2022-10-26T15:42:51;21.20;99.90
24638;DHT22;12773;50.162;8.548;2022-10-26T15:45:44;21.20;99.90
24638;DHT22;12773;50.162;8.548;2022-10-26T15:48:36;21.10;99.90
24638;DHT22;12773;50.162;8.548;2022-10-26T15:51:25;20.90;99.90
24638;DHT22;12773;50.162;8.548;2022-10-26T15:54:14;20.80;99.90
24638;DHT22;12773;50.162;8.548;2022-10-26T15:57:02;20.60;99.90
24638;DHT22;12773;50.162;8.548;2022-10-26T15:59:50;20.40;99.90
24638;DHT22;12773;50.162;8.548;2022-10-26T16:02:38;20.20;99.90
24638;DHT22;12773;50.162;8.548;2022-10-26T16:05:26;20.10;99.90
24638;DHT22;12773;50.162;8.548;2022-10-26T16:08:16;19.80;99.90
24638;DHT22;12773;50.162;8.548;2022-10-26T16:11:04;19.60;99.90
24638;DHT22;12773;50.162;8.548;2022-10-26T16:13:51;19.50;99.90
24638;DHT22;12773;50.162;8.548;2022-10-26T16:16:41;19.40;99.90
24638;DHT22;12773;50.162;8.548;2022-10-26T16:19:29;19.30;99.90
24638;DHT22;12773;50.162;8.548;2022-10-26T16:22:17;19.10;99.90
24638;DHT22;12773;50.162;8.548;2022-10-26T16:25:05;18.90;99.90
24638;DHT22;12773;50.162;8.548;2022-10-26T16:27:54;18.70;99.90
24638;DHT22;12773;50.162;8.548;2022-10-26T16:30:41;18.60;99.90
24638;DHT22;12773;50.162;8.548;2022-10-26T16:33:29;18.30;99.90
24638;DHT22;12773;50.162;8.548;2022-10-26T16:36:16;17.90;99.90
24638;DHT22;12773;50.162;8.548;2022-10-26T16:39:05;17.60;99.90
24638;DHT22;12773;50.162;8.548;2022-10-26T16:41:53;17.40;99.90
24638;DHT22;12773;50.162;8.548;2022-10-26T16:44:40;17.20;99.90
24638;DHT22;12773;50.162;8.548;2022-10-26T16:47:27;17.20;99.90
24638;DHT22;12773;50.162;8.548;2022-10-26T16:50:15;17.10;99.90
24638;DHT22;12773;50.162;8.548;2022-10-26T16:53:04;16.90;99.90
24638;DHT22;12773;50.162;8.548;2022-10-26T16:55:51;16.60;99.90
24638;DHT22;12773;50.162;8.548;2022-10-26T16:58:39;16.50;99.90
24638;DHT22;12773;50.162;8.548;2022-10-26T17:01:27;16.30;99.90
24638;DHT22;12773;50.162;8.548;2022-10-26T17:04:15;16.10;99.90
24638;DHT22;12773;50.162;8.548;2022-10-26T17:07:02;16.30;99.90
24638;DHT22;12773;50.162;8.548;2022-10-26T17:09:49;16.30;99.90
24638;DHT22;12773;50.162;8.548;2022-10-26T17:12:36;16.10;99.90
24638;DHT22;12773;50.162;8.548;2022-10-26T17:15:24;16.10;99.90
24638;DHT22;12773;50.162;8.548;2022-10-26T17:18:14;16.00;99.90
24638;DHT22;12773;50.162;8.548;2022-10-26T17:21:02;15.90;99.90
24638;DHT22;12773;50.162;8.548;2022-10-26T17:23:49;15.90;99.90
24638;DHT22;12773;50.162;8.548;2022-10-26T17:26:37;15.80;99.90
24638;DHT22;12773;50.162;8.548;2022-10-26T17:29:24;15.70;99.90
24638;DHT22;12773;50.162;8.548;2022-10-26T17:32:18;15.70;99.90
24638;DHT22;12773;50.162;8.548;2022-10-26T17:35:02;15.60;99.90
24638;DHT22;12773;50.162;8.548;2022-10-26T17:37:49;15.60;99.90
24638;DHT22;12773;50.162;8.548;2022-10-26T17:40:37;15.50;99.90
24638;DHT22;12773;50.162;8.548;2022-10-26T17:43:25;15.40;99.90
24638;DHT22;12773;50.162;8.548;2022-10-26T17:46:19;15.50;99.90
24638;DHT22;12773;50.162;8.548;2022-10-26T17:49:02;15.50;99.90
24638;DHT22;12773;50.162;8.548;2022-10-26T17:51:50;15.50;99.90
24638;DHT22;12773;50.162;8.548;2022-10-26T17:54:37;15.40;99.90
24638;DHT22;12773;50.162;8.548;2022-10-26T17:57:25;15.30;99.90
24638;DHT22;12773;50.162;8.548;2022-10-26T18:00:12;15.30;99.90
24638;DHT22;12773;50.162;8.548;2022-10-26T18:03:00;15.20;99.90
24638;DHT22;12773;50.162;8.548;2022-10-26T18:05:49;15.20;99.90
24638;DHT22;12773;50.162;8.548;2022-10-26T18:08:37;15.20;99.90
24638;DHT22;12773;50.162;8.548;2022-10-26T18:11:26;15.20;99.90
24638;DHT22;12773;50.162;8.548;2022-10-26T18:14:14;15.20;99.90
24638;DHT22;12773;50.162;8.548;2022-10-26T18:17:01;15.20;99.90
24638;DHT22;12773;50.162;8.548;2022-10-26T18:19:48;15.20;99.90
24638;DHT22;12773;50.162;8.548;2022-10-26T18:22:35;15.20;99.90
24638;DHT22;12773;50.162;8.548;2022-10-26T18:25:26;14.90;99.90
24638;DHT22;12773;50.162;8.548;2022-10-26T18:28:14;14.80;99.90
24638;DHT22;12773;50.162;8.548;2022-10-26T18:31:04;14.70;99.90
24638;DHT22;12773;50.162;8.548;2022-10-26T18:33:55;14.80;99.90
24638;DHT22;12773;50.162;8.548;2022-10-26T18:36:43;14.80;99.90
24638;DHT22;12773;50.162;8.548;2022-10-26T18:39:30;14.60;99.90
24638;DHT22;12773;50.162;8.548;2022-10-26T18:42:18;14.40;99.90
24638;DHT22;12773;50.162;8.548;2022-10-26T18:45:05;14.30;99.90
24638;DHT22;12773;50.162;8.548;2022-10-26T18:47:53;14.40;99.90
24638;DHT22;12773;50.162;8.548;2022-10-26T18:50:40;14.40;99.90
24638;DHT22;12773;50.162;8.548;2022-10-26T18:53:28;14.50;99.90
24638;DHT22;12773;50.162;8.548;2022-10-26T18:56:18;14.50;99.90
24638;DHT22;12773;50.162;8.548;2022-10-26T18:59:06;14.60;99.90
24638;DHT22;12773;50.162;8.548;2022-10-26T19:01:53;14.60;99.90
24638;DHT22;12773;50.162;8.548;2022-10-26T19:04:41;14.60;99.90
24638;DHT22;12773;50.162;8.548;2022-10-26T19:07:29;14.50;99.90
24638;DHT22;12773;50.162;8.548;2022-10-26T19:10:16;14.40;99.90
24638;DHT22;12773;50.162;8.548;2022-10-26T19:13:04;14.30;99.90
24638;DHT22;12773;50.162;8.548;2022-10-26T19:16:04;14.20;99.90
24638;DHT22;12773;50.162;8.548;2022-10-26T19:18:56;14.00;99.90
24638;DHT22;12773;50.162;8.548;2022-10-26T19:21:45;13.80;99.90
24638;DHT22;12773;50.162;8.548;2022-10-26T19:24:33;13.70;99.90
24638;DHT22;12773;50.162;8.548;2022-10-26T19:27:20;13.70;99.90
24638;DHT22;12773;50.162;8.548;2022-10-26T19:30:07;13.70;99.90
24638;DHT22;12773;50.162;8.548;2022-10-26T19:32:55;13.70;99.90
24638;DHT22;12773;50.162;8.548;2022-10-26T19:35:42;13.70;99.90